首页
METAR-TAF:

METAR-TAF

机场 :

布赖顿, 英格兰

纬度: 50-50N, 经度: 000-17W, 海拔: 2米

当前天气观测

该预报发布于28分钟前的09:20 UTC
风速14节,风向东北
温度 21°C
湿度 46%
气压 1021 hPa
能见度10公里或以上
1500米以下无云,无积雨云

METAR: EGKA 010920Z 04014KT CAVOK 21/09 Q1021

时间: 10:48 (09:48 UTC)

预报

该预报发布于19小时和47分钟前的14:01 UTC
预报有效从31日的 15点(UTC)到 31日的 17点(UTC)
风速13节,风向东转东北
能见度10公里或以上
1500米以下无云,无积雨云
几率 40% :
短暂存在
从 31日的 15点(UTC)到 31日的 17点(UTC)
风速16节,风向东北,有时为26节阵风

TAF: EGKA 311401Z 3115/3117 07013KT CAVOK PROB40 TEMPO 3115/3117 05016G26KT

超过4000个机场的气象观测和天气预报(METAR&TAF报告)。

可查询的气象台以黄色和红色小点在地图上表示。

将鼠标移到小点上方,可查看气象台名称。

然后点击查看天气观测和预报。

如需切换地图:点击带黑十字的绿色按钮放大地图;点击带横线的绿色按钮缩小地图;或者点击绿色箭头查看邻近地区的地图。


METAR-TAF: